createdAt,value
2022-10-15T00:01:23.043Z,18.05
2022-10-15T00:03:50.046Z,18.25
2022-10-15T00:06:20.857Z,12.48
2022-10-15T00:08:48.360Z,17.52
2022-10-15T00:11:22.355Z,17.17
2022-10-15T00:13:50.092Z,16.30
2022-10-15T00:16:19.692Z,17.23
2022-10-15T00:18:46.920Z,17.05
2022-10-15T00:21:16.319Z,14.77
2022-10-15T00:23:43.897Z,18.15
2022-10-15T00:26:12.518Z,20.85
2022-10-15T00:28:39.604Z,17.00
2022-10-15T00:31:12.130Z,17.10
2022-10-15T00:33:39.602Z,15.45
2022-10-15T00:36:14.399Z,14.43
2022-10-15T00:38:41.558Z,15.13
2022-10-15T00:41:16.821Z,18.88
2022-10-15T00:43:55.665Z,16.70
2022-10-15T00:46:30.725Z,17.48
2022-10-15T00:49:32.919Z,13.93
2022-10-15T00:52:04.510Z,19.05
2022-10-15T00:54:39.503Z,15.90
2022-10-15T00:57:07.600Z,20.75
2022-10-15T00:59:39.142Z,17.10
2022-10-15T01:02:07.043Z,15.68
2022-10-15T01:04:34.632Z,20.00
2022-10-15T01:07:01.776Z,17.42
2022-10-15T01:09:28.750Z,14.68
2022-10-15T01:11:57.084Z,21.55
2022-10-15T01:14:30.227Z,15.98
2022-10-15T01:17:04.138Z,15.63
2022-10-15T01:20:08.336Z,14.52
2022-10-15T01:22:41.160Z,13.73
2022-10-15T01:25:20.219Z,18.95
2022-10-15T01:27:57.091Z,14.57
2022-10-15T01:30:56.171Z,16.60
2022-10-15T01:33:42.776Z,14.48
2022-10-15T01:36:15.292Z,25.20
2022-10-15T01:39:13.089Z,14.40
2022-10-15T01:41:52.415Z,12.73
2022-10-15T01:44:22.355Z,14.40
2022-10-15T01:47:03.161Z,16.45
2022-10-15T01:49:34.409Z,18.15
2022-10-15T01:52:10.738Z,17.15
2022-10-15T01:54:38.107Z,19.13
2022-10-15T01:57:07.136Z,16.60
2022-10-15T01:59:35.020Z,19.73
2022-10-15T02:02:02.064Z,13.60
2022-10-15T02:04:31.425Z,18.60
2022-10-15T02:07:07.273Z,11.75
2022-10-15T02:10:01.016Z,14.07
2022-10-15T02:12:38.759Z,13.45
2022-10-15T02:15:36.118Z,12.00
2022-10-15T02:18:15.312Z,14.73
2022-10-15T02:21:07.866Z,12.25
2022-10-15T02:23:40.774Z,16.25
2022-10-15T02:26:10.199Z,14.48
2022-10-15T02:28:39.530Z,14.88
2022-10-15T02:31:10.032Z,13.30
2022-10-15T02:33:38.405Z,16.27
2022-10-15T02:36:06.316Z,15.30
2022-10-15T02:38:34.328Z,13.45
2022-10-15T02:41:02.231Z,11.07
2022-10-15T02:43:29.176Z,14.10
2022-10-15T02:45:56.135Z,10.18
2022-10-15T02:48:23.075Z,15.10
2022-10-15T02:50:50.069Z,11.63
2022-10-15T02:53:16.943Z,12.32
2022-10-15T02:55:43.948Z,17.08
2022-10-15T02:58:11.128Z,11.90
2022-10-15T03:00:38.066Z,17.00
2022-10-15T03:03:05.058Z,12.40
2022-10-15T03:05:32.055Z,12.73
2022-10-15T03:08:00.143Z,11.27
2022-10-15T03:10:27.269Z,11.82
2022-10-15T03:12:54.172Z,14.68
2022-10-15T03:15:21.094Z,11.93
2022-10-15T03:17:47.985Z,12.30
2022-10-15T03:20:14.928Z,18.55
2022-10-15T03:22:41.835Z,13.32
2022-10-15T03:25:08.967Z,11.27
2022-10-15T03:27:35.938Z,13.02
2022-10-15T03:30:02.926Z,11.93
2022-10-15T03:32:32.993Z,9.60
2022-10-15T03:35:02.532Z,12.52
2022-10-15T03:37:29.540Z,11.82
2022-10-15T03:39:56.435Z,19.60
2022-10-15T03:42:23.702Z,10.93
2022-10-15T03:44:50.828Z,12.43
2022-10-15T03:47:17.793Z,17.05
2022-10-15T03:49:44.728Z,14.73
2022-10-15T03:52:11.719Z,10.45
2022-10-15T03:54:38.622Z,11.77
2022-10-15T03:57:05.823Z,11.95
2022-10-15T03:59:32.969Z,11.50
2022-10-15T04:02:00.024Z,11.90
2022-10-15T04:04:26.972Z,9.38
2022-10-15T04:06:53.964Z,15.38
2022-10-15T04:09:20.948Z,11.77
2022-10-15T04:11:47.846Z,15.52
2022-10-15T04:14:14.783Z,12.75
2022-10-15T04:16:41.950Z,11.82
2022-10-15T04:19:11.055Z,16.45
2022-10-15T04:21:38.372Z,11.52
2022-10-15T04:24:05.457Z,12.50
2022-10-15T04:26:32.531Z,18.27
2022-10-15T04:28:59.539Z,9.55
2022-10-15T04:31:26.638Z,9.77
2022-10-15T04:33:53.538Z,11.75
2022-10-15T04:36:20.480Z,15.23
2022-10-15T04:38:47.492Z,16.45
2022-10-15T04:41:14.535Z,11.45
2022-10-15T04:43:41.550Z,17.08
2022-10-15T04:46:09.537Z,14.63
2022-10-15T04:48:42.042Z,11.63
2022-10-15T04:51:14.724Z,13.57
2022-10-15T04:53:42.395Z,13.18
2022-10-15T04:56:15.521Z,14.95
2022-10-15T04:58:43.474Z,12.07
2022-10-15T05:01:13.280Z,12.80
2022-10-15T05:03:44.858Z,17.10
2022-10-15T05:06:15.256Z,14.38
2022-10-15T05:08:50.064Z,12.43
2022-10-15T05:11:22.937Z,18.92
2022-10-15T05:13:50.840Z,17.40
2022-10-15T05:16:23.015Z,12.23
2022-10-15T05:18:52.165Z,14.02
2022-10-15T05:21:19.990Z,11.65
2022-10-15T05:23:50.628Z,15.27
2022-10-15T05:26:22.665Z,13.00
2022-10-15T05:28:50.418Z,14.85
2022-10-15T05:31:22.370Z,14.20
2022-10-15T05:33:51.981Z,15.52
2022-10-15T05:36:27.915Z,26.02
2022-10-15T05:38:57.299Z,16.33
2022-10-15T05:41:25.899Z,14.25
2022-10-15T05:43:54.999Z,13.68
2022-10-15T05:46:22.810Z,13.82
2022-10-15T05:48:54.979Z,16.20
2022-10-15T05:51:29.093Z,13.18
2022-10-15T05:53:57.152Z,15.20
2022-10-15T05:56:25.031Z,20.13
2022-10-15T05:58:52.448Z,14.05
2022-10-15T06:01:19.583Z,14.80
2022-10-15T06:03:46.632Z,15.23
2022-10-15T06:06:21.775Z,13.75
2022-10-15T06:08:49.588Z,14.65
2022-10-15T06:11:17.717Z,15.65
2022-10-15T06:13:45.129Z,20.17
2022-10-15T06:16:14.762Z,13.23
2022-10-15T06:18:43.564Z,15.50
2022-10-15T06:21:11.288Z,15.23
2022-10-15T06:23:38.264Z,12.13
2022-10-15T06:26:07.652Z,11.02
2022-10-15T06:28:35.512Z,15.18
2022-10-15T06:31:03.098Z,15.27
2022-10-15T06:33:30.427Z,11.65
2022-10-15T06:36:04.883Z,13.75
2022-10-15T06:38:32.227Z,18.10
2022-10-15T06:40:59.211Z,14.02
2022-10-15T06:43:28.747Z,14.40
2022-10-15T06:45:59.610Z,15.00
2022-10-15T06:48:27.364Z,12.43
2022-10-15T06:50:54.348Z,13.75
2022-10-15T06:53:22.558Z,17.40
2022-10-15T06:55:49.459Z,13.18
2022-10-15T06:58:16.403Z,14.77
2022-10-15T07:00:43.287Z,13.23
2022-10-15T07:03:10.267Z,14.07
2022-10-15T07:05:37.216Z,14.35
2022-10-15T07:08:04.259Z,18.60
2022-10-15T07:10:31.249Z,11.10
2022-10-15T07:13:01.030Z,17.08
2022-10-15T07:15:36.614Z,13.95
2022-10-15T07:18:04.128Z,13.60
2022-10-15T07:20:32.500Z,14.75
2022-10-15T07:23:01.549Z,12.60
2022-10-15T07:25:29.144Z,14.82
2022-10-15T07:27:56.962Z,14.23
2022-10-15T07:30:28.703Z,16.13
2022-10-15T07:33:01.580Z,14.75
2022-10-15T07:35:28.820Z,13.02
2022-10-15T07:37:55.795Z,16.48
2022-10-15T07:40:22.778Z,15.05
2022-10-15T07:42:56.953Z,17.60
2022-10-15T07:45:25.115Z,13.32
2022-10-15T07:47:52.967Z,16.15
2022-10-15T07:50:20.991Z,17.45
2022-10-15T07:52:48.200Z,14.68
2022-10-15T07:55:15.330Z,20.73
2022-10-15T07:57:42.244Z,14.38
2022-10-15T08:00:09.779Z,15.55
2022-10-15T08:02:36.707Z,11.30
2022-10-15T08:05:03.813Z,18.52
2022-10-15T08:07:30.699Z,15.43
2022-10-15T08:09:57.618Z,17.75
2022-10-15T08:12:24.733Z,18.55
2022-10-15T08:14:51.859Z,14.60
2022-10-15T08:17:18.735Z,14.07
2022-10-15T08:19:45.680Z,17.20
2022-10-15T08:22:12.854Z,15.20
2022-10-15T08:24:39.747Z,15.63
2022-10-15T08:27:06.656Z,15.98
2022-10-15T08:29:33.630Z,13.20
2022-10-15T08:32:00.509Z,16.77
2022-10-15T08:34:27.598Z,14.25
2022-10-15T08:36:54.545Z,16.52
2022-10-15T08:39:21.445Z,20.10
2022-10-15T08:41:58.679Z,16.30
2022-10-15T08:44:29.167Z,16.15
2022-10-15T08:47:05.834Z,18.65
2022-10-15T08:49:43.874Z,20.15
2022-10-15T08:52:30.112Z,19.02
2022-10-15T08:54:58.909Z,17.75
2022-10-15T08:57:31.992Z,18.08
2022-10-15T09:00:04.884Z,15.63
2022-10-15T09:02:58.931Z,20.38
2022-10-15T09:05:32.581Z,16.88
2022-10-15T09:08:22.949Z,20.05
2022-10-15T09:10:59.458Z,20.17
2022-10-15T09:13:41.826Z,19.08
2022-10-15T09:16:16.540Z,22.83
2022-10-15T09:18:49.675Z,22.73
2022-10-15T09:21:17.091Z,18.10
2022-10-15T09:23:44.820Z,20.67
2022-10-15T09:26:28.501Z,15.27
2022-10-15T09:29:20.060Z,21.00
2022-10-15T09:32:23.244Z,16.63
2022-10-15T09:35:17.619Z,18.48
2022-10-15T09:38:04.867Z,14.90
2022-10-15T09:40:51.400Z,15.63
2022-10-15T09:43:30.982Z,22.92
2022-10-15T09:45:58.427Z,19.23
2022-10-15T09:48:28.127Z,17.38
2022-10-15T09:51:18.039Z,20.23
2022-10-15T09:54:05.677Z,18.08
2022-10-15T09:56:43.355Z,16.90
2022-10-15T09:59:19.533Z,22.15
2022-10-15T10:02:15.661Z,20.65
2022-10-15T10:04:42.664Z,16.48
2022-10-15T10:07:34.325Z,18.83
2022-10-15T10:10:05.537Z,17.40
2022-10-15T10:12:35.363Z,19.58
2022-10-15T10:15:22.763Z,21.10
2022-10-15T10:17:53.898Z,22.65
2022-10-15T10:20:23.358Z,20.17
2022-10-15T10:22:57.089Z,19.08
2022-10-15T10:25:26.866Z,20.92
2022-10-15T10:27:55.302Z,22.95
2022-10-15T10:30:23.222Z,21.25
2022-10-15T10:32:58.593Z,20.95
2022-10-15T10:35:33.633Z,19.92
2022-10-15T10:38:00.673Z,22.00
2022-10-15T10:40:35.453Z,25.25
2022-10-15T10:43:29.881Z,24.52
2022-10-15T10:46:05.799Z,27.73
2022-10-15T10:48:43.144Z,25.33
2022-10-15T10:51:23.227Z,25.80
2022-10-15T10:53:59.146Z,28.77
2022-10-15T10:56:35.128Z,25.23
2022-10-15T10:59:10.570Z,25.23
2022-10-15T11:01:37.556Z,26.00
2022-10-15T11:07:00.895Z,28.88
2022-10-15T11:12:30.593Z,21.77
2022-10-15T11:15:31.149Z,29.52
2022-10-15T11:18:19.800Z,26.95
2022-10-15T11:21:01.827Z,26.10
2022-10-15T11:23:57.346Z,28.20
2022-10-15T11:26:51.991Z,27.75
2022-10-15T11:29:36.735Z,27.75
2022-10-15T11:33:01.731Z,27.58
2022-10-15T11:35:57.821Z,33.33
2022-10-15T11:38:24.688Z,32.65
2022-10-15T11:41:12.661Z,34.15
2022-10-15T11:44:04.226Z,29.00
2022-10-15T11:46:42.833Z,27.20
2022-10-15T11:49:12.608Z,30.30
2022-10-15T11:52:06.800Z,28.60
2022-10-15T11:54:42.393Z,32.13
2022-10-15T11:57:16.964Z,28.63
2022-10-15T11:59:46.903Z,27.17
2022-10-15T12:02:19.344Z,27.20
2022-10-15T12:04:50.775Z,31.48
2022-10-15T12:07:30.736Z,32.20
2022-10-15T12:10:17.069Z,30.77
2022-10-15T12:13:02.143Z,31.75
2022-10-15T12:15:47.791Z,34.65
2022-10-15T12:18:20.172Z,37.92
2022-10-15T12:20:47.532Z,32.13
2022-10-15T12:23:39.382Z,32.55
2022-10-15T12:26:28.920Z,35.17
2022-10-15T12:28:59.614Z,34.90
2022-10-15T12:31:50.807Z,33.97
2022-10-15T12:34:39.485Z,36.50
2022-10-15T12:37:16.780Z,30.85
2022-10-15T12:39:52.569Z,36.65
2022-10-15T12:42:28.360Z,30.55
2022-10-15T12:44:57.239Z,36.00
2022-10-15T12:47:49.988Z,31.67
2022-10-15T12:50:27.933Z,30.35
2022-10-15T12:53:01.781Z,33.85
2022-10-15T12:55:33.847Z,32.67
2022-10-15T12:58:20.391Z,31.42
2022-10-15T13:00:47.503Z,32.75
2022-10-15T13:03:41.788Z,37.58
2022-10-15T13:06:25.615Z,30.77
2022-10-15T13:09:10.256Z,31.52
2022-10-15T13:11:40.893Z,33.53
2022-10-15T13:14:32.978Z,31.58
2022-10-15T13:17:03.592Z,27.25
2022-10-15T13:19:41.046Z,24.40
2022-10-15T13:22:24.754Z,28.40
2022-10-15T13:24:52.379Z,29.92
2022-10-15T13:27:30.729Z,25.45
2022-10-15T13:30:13.068Z,36.63
2022-10-15T13:32:54.124Z,26.67
2022-10-15T13:37:49.454Z,25.52
2022-10-15T13:40:25.679Z,26.27
2022-10-15T13:43:06.951Z,26.73
2022-10-15T13:45:34.265Z,31.20
2022-10-15T13:48:01.394Z,29.65
2022-10-15T13:50:34.964Z,20.05
2022-10-15T13:53:12.287Z,23.92
2022-10-15T13:55:44.106Z,39.05
2022-10-15T13:58:27.763Z,29.25
2022-10-15T14:01:13.937Z,21.20
2022-10-15T14:03:49.947Z,25.25
2022-10-15T14:06:25.568Z,23.60
2022-10-15T14:08:55.880Z,20.63
2022-10-15T14:11:23.636Z,20.95
2022-10-15T14:13:52.028Z,20.58
2022-10-15T14:16:31.072Z,21.35
2022-10-15T14:19:10.857Z,23.70
2022-10-15T14:21:44.691Z,22.85
2022-10-15T14:24:30.684Z,24.90
2022-10-15T14:27:17.635Z,28.05
2022-10-15T14:29:49.535Z,21.20
2022-10-15T14:32:23.351Z,18.33
2022-10-15T14:34:52.542Z,19.65
2022-10-15T14:37:37.568Z,18.10
2022-10-15T14:40:17.091Z,18.52
2022-10-15T14:43:03.860Z,21.88
2022-10-15T14:45:37.966Z,23.15
2022-10-15T14:48:18.647Z,20.73
2022-10-15T14:50:45.690Z,22.00
2022-10-15T14:53:20.148Z,23.88
2022-10-15T14:56:14.683Z,19.67
2022-10-15T14:58:52.499Z,22.70
2022-10-15T15:01:20.720Z,25.92
2022-10-15T15:03:53.329Z,19.27
2022-10-15T15:06:20.376Z,19.65
2022-10-15T15:08:47.899Z,25.40
2022-10-15T15:11:24.403Z,22.33
2022-10-15T15:13:52.321Z,26.50
2022-10-15T15:16:19.613Z,22.30
2022-10-15T15:18:48.799Z,24.58
2022-10-15T15:21:23.449Z,22.75
2022-10-15T15:23:50.827Z,24.05
2022-10-15T15:26:17.766Z,26.38
2022-10-15T15:28:44.977Z,24.00
2022-10-15T15:31:17.998Z,23.15
2022-10-15T15:33:44.922Z,25.10
2022-10-15T15:36:20.695Z,30.45
2022-10-15T15:38:51.308Z,28.27
2022-10-15T15:41:20.335Z,34.03
2022-10-15T15:43:47.860Z,28.27
2022-10-15T15:46:15.434Z,28.17
2022-10-15T15:48:42.461Z,27.10
2022-10-15T15:51:25.554Z,27.75
2022-10-15T15:53:52.570Z,30.85
2022-10-15T15:56:19.575Z,27.60
2022-10-15T15:58:46.763Z,26.98
2022-10-15T16:01:13.648Z,28.80
2022-10-15T16:03:40.587Z,23.55
2022-10-15T16:06:08.030Z,24.92
2022-10-15T16:08:36.112Z,28.52
2022-10-15T16:11:04.296Z,30.05
2022-10-15T16:13:31.429Z,25.73
2022-10-15T16:15:58.403Z,24.85
2022-10-15T16:18:25.342Z,27.13
2022-10-15T16:20:52.487Z,20.75
2022-10-15T16:23:19.420Z,18.15
2022-10-15T16:25:46.371Z,23.63
2022-10-15T16:28:13.393Z,27.13
2022-10-15T16:30:40.293Z,32.15
2022-10-15T16:35:39.082Z,19.85
2022-10-15T16:38:06.664Z,26.10
2022-10-15T16:40:33.873Z,17.90
2022-10-15T16:43:00.818Z,24.23
2022-10-15T16:45:27.755Z,27.30
2022-10-15T16:47:54.653Z,23.23
2022-10-15T16:50:21.892Z,25.52
2022-10-15T16:52:48.827Z,33.90
2022-10-15T16:55:18.521Z,22.05
2022-10-15T16:57:45.511Z,29.95
2022-10-15T17:00:12.941Z,27.10
2022-10-15T17:02:39.854Z,21.98
2022-10-15T17:05:07.312Z,27.45
2022-10-15T17:07:34.215Z,29.45
2022-10-15T17:10:10.956Z,20.80
2022-10-15T17:12:40.929Z,33.83
2022-10-15T17:15:08.546Z,35.22
2022-10-15T17:17:36.291Z,35.63
2022-10-15T17:20:03.560Z,21.55
2022-10-15T17:22:30.547Z,20.17
2022-10-15T17:24:57.538Z,26.35
2022-10-15T17:27:24.675Z,30.33
2022-10-15T17:29:52.056Z,28.17
2022-10-15T17:32:19.031Z,29.02
2022-10-15T17:34:46.036Z,32.67
2022-10-15T17:37:14.431Z,32.70
2022-10-15T17:39:41.619Z,31.50
2022-10-15T17:42:08.585Z,28.42
2022-10-15T17:44:35.537Z,34.55
2022-10-15T17:47:02.510Z,24.38
2022-10-15T17:49:29.489Z,31.17
2022-10-15T17:51:56.496Z,29.05
2022-10-15T17:54:23.395Z,30.65
2022-10-15T17:56:50.476Z,22.20
2022-10-15T17:59:18.264Z,25.23
2022-10-15T18:01:57.885Z,40.08
2022-10-15T18:04:25.871Z,32.58
2022-10-15T18:06:52.836Z,27.35
2022-10-15T18:09:19.800Z,29.80
2022-10-15T18:11:48.650Z,30.50
2022-10-15T18:14:15.800Z,30.67
2022-10-15T18:16:43.452Z,25.98
2022-10-15T18:19:10.539Z,23.73
2022-10-15T18:21:37.983Z,26.65
2022-10-15T18:24:05.081Z,24.80
2022-10-15T18:26:32.462Z,26.05
2022-10-15T18:28:59.547Z,25.90
2022-10-15T18:31:26.662Z,23.83
2022-10-15T18:33:56.212Z,25.20
2022-10-15T18:36:25.834Z,22.15
2022-10-15T18:38:53.494Z,25.67
2022-10-15T18:41:28.122Z,26.30
2022-10-15T18:44:03.022Z,32.30
2022-10-15T18:46:31.215Z,26.55
2022-10-15T18:48:58.730Z,29.80
2022-10-15T18:51:26.550Z,22.75
2022-10-15T18:53:53.839Z,24.27
2022-10-15T18:56:22.361Z,23.58
2022-10-15T18:58:50.076Z,25.77
2022-10-15T19:01:27.981Z,28.13
2022-10-15T19:03:56.262Z,24.08
2022-10-15T19:06:25.475Z,28.58
2022-10-15T19:08:53.132Z,24.77
2022-10-15T19:11:20.390Z,25.77
2022-10-15T19:13:47.805Z,24.27
2022-10-15T19:16:15.009Z,25.80
2022-10-15T19:18:41.893Z,26.27
2022-10-15T19:21:10.510Z,27.20
2022-10-15T19:23:37.601Z,32.33
2022-10-15T19:26:11.870Z,36.03
2022-10-15T19:28:40.794Z,25.00
2022-10-15T19:31:10.180Z,39.05
2022-10-15T19:33:38.033Z,26.23
2022-10-15T19:36:05.328Z,27.40
2022-10-15T19:38:32.348Z,33.47
2022-10-15T19:41:04.863Z,35.05
2022-10-15T19:43:31.778Z,26.52
2022-10-15T19:48:42.626Z,21.27
2022-10-15T19:51:09.662Z,24.40
2022-10-15T19:53:36.800Z,22.80
2022-10-15T19:56:06.795Z,21.45
2022-10-15T19:58:35.149Z,22.55
2022-10-15T20:01:02.744Z,19.83
2022-10-15T20:03:30.854Z,26.25
2022-10-15T20:05:58.341Z,23.60
2022-10-15T20:08:26.164Z,26.02
2022-10-15T20:10:53.243Z,20.98
2022-10-15T20:13:22.011Z,23.65
2022-10-15T20:15:51.842Z,29.00
2022-10-15T20:18:19.815Z,24.60
2022-10-15T20:20:47.442Z,22.25
2022-10-15T20:23:17.860Z,21.75
2022-10-15T20:25:45.729Z,23.13
2022-10-15T20:28:14.918Z,21.33
2022-10-15T20:30:42.362Z,24.80
2022-10-15T20:33:10.450Z,22.25
2022-10-15T20:35:38.427Z,25.25
2022-10-15T20:38:06.671Z,22.23
2022-10-15T20:40:34.798Z,26.45
2022-10-15T20:43:01.857Z,23.60
2022-10-15T20:45:34.778Z,19.67
2022-10-15T20:48:03.486Z,22.98
2022-10-15T20:50:35.755Z,22.52
2022-10-15T20:53:03.235Z,24.17
2022-10-15T20:55:30.218Z,21.92
2022-10-15T20:57:57.195Z,21.45
2022-10-15T21:00:24.160Z,18.92
2022-10-15T21:02:51.059Z,22.55
2022-10-15T21:05:18.065Z,23.15
2022-10-15T21:07:44.984Z,19.30
2022-10-15T21:10:11.912Z,22.45
2022-10-15T21:12:39.277Z,23.30
2022-10-15T21:15:06.803Z,19.75
2022-10-15T21:17:33.749Z,20.42
2022-10-15T21:20:00.666Z,24.50
2022-10-15T21:22:27.571Z,21.40
2022-10-15T21:24:54.471Z,18.38
2022-10-15T21:27:21.420Z,21.75
2022-10-15T21:29:49.554Z,19.63
2022-10-15T21:32:16.556Z,17.33
2022-10-15T21:34:43.521Z,27.08
2022-10-15T21:37:10.517Z,24.30
2022-10-15T21:39:37.428Z,18.85
2022-10-15T21:42:04.482Z,22.52
2022-10-15T21:44:31.475Z,20.00
2022-10-15T21:46:58.460Z,19.17
2022-10-15T21:49:25.414Z,18.50
2022-10-15T21:51:52.376Z,21.35
2022-10-15T21:54:19.291Z,19.95
2022-10-15T21:56:46.203Z,21.20
2022-10-15T21:59:13.128Z,19.98
2022-10-15T22:01:42.189Z,20.38
2022-10-15T22:04:15.579Z,20.67
2022-10-15T22:06:44.876Z,18.88
2022-10-15T22:09:14.794Z,21.05
2022-10-15T22:11:44.707Z,24.48
2022-10-15T22:14:14.585Z,19.73
2022-10-15T22:16:42.503Z,19.77
2022-10-15T22:19:13.534Z,15.20
2022-10-15T22:24:17.214Z,21.20
2022-10-15T22:26:51.654Z,18.98
2022-10-15T22:29:24.849Z,17.77
2022-10-15T22:31:52.800Z,22.75
2022-10-15T22:34:20.838Z,17.63
2022-10-15T22:36:47.939Z,21.50
2022-10-15T22:39:17.148Z,22.63
2022-10-15T22:41:45.744Z,24.33
2022-10-15T22:44:18.081Z,21.08
2022-10-15T22:46:49.633Z,19.15
2022-10-15T22:49:19.783Z,19.33
2022-10-15T22:51:47.637Z,20.27
2022-10-15T22:54:15.960Z,22.75
2022-10-15T22:56:43.124Z,17.23
2022-10-15T23:01:42.363Z,16.65
2022-10-15T23:06:51.662Z,16.25
2022-10-15T23:09:20.070Z,19.02
2022-10-15T23:11:47.004Z,17.88
2022-10-15T23:14:15.864Z,19.10
2022-10-15T23:16:45.448Z,18.65
2022-10-15T23:19:16.732Z,16.92
2022-10-15T23:21:52.438Z,18.35
2022-10-15T23:24:22.317Z,20.80
2022-10-15T23:26:49.704Z,22.08
2022-10-15T23:29:22.318Z,18.10
2022-10-15T23:31:49.665Z,14.93
2022-10-15T23:34:22.530Z,40.25
2022-10-15T23:36:49.908Z,22.15
2022-10-15T23:39:19.640Z,16.65
2022-10-15T23:41:46.701Z,15.60
2022-10-15T23:44:14.063Z,17.17
2022-10-15T23:46:41.257Z,17.63
2022-10-15T23:49:08.872Z,22.92
2022-10-15T23:51:35.953Z,15.90
2022-10-15T23:54:09.769Z,17.55
2022-10-15T23:56:36.664Z,18.90
2022-10-15T23:59:03.581Z,18.63
